sensor_id;sensor_type;location;lat;lon;timestamp;pressure;altitude;pressure_sealevel;temperature;humidity
73220;BME280;61434;43.538;-5.688;2022-11-15T00:00:01;100652.38;;;15.37;67.45
73220;BME280;61434;43.538;-5.688;2022-11-15T00:02:26;100640.91;;;15.44;67.36
73220;BME280;61434;43.538;-5.688;2022-11-15T00:04:51;100631.34;;;15.31;68.00
73220;BME280;61434;43.538;-5.688;2022-11-15T00:07:16;100626.97;;;15.38;67.44
73220;BME280;61434;43.538;-5.688;2022-11-15T00:09:42;100606.97;;;15.39;67.58
73220;BME280;61434;43.538;-5.688;2022-11-15T00:12:07;100596.59;;;15.35;67.03
73220;BME280;61434;43.538;-5.688;2022-11-15T00:14:32;100596.28;;;15.38;67.63
73220;BME280;61434;43.538;-5.688;2022-11-15T00:16:58;100594.72;;;15.35;67.72
73220;BME280;61434;43.538;-5.688;2022-11-15T00:19:23;100594.25;;;15.48;67.60
73220;BME280;61434;43.538;-5.688;2022-11-15T00:21:48;100596.63;;;15.43;67.23
73220;BME280;61434;43.538;-5.688;2022-11-15T00:24:13;100578.78;;;15.40;67.38
73220;BME280;61434;43.538;-5.688;2022-11-15T00:26:39;100580.47;;;15.33;67.55
73220;BME280;61434;43.538;-5.688;2022-11-15T00:29:04;100571.19;;;15.44;67.61
73220;BME280;61434;43.538;-5.688;2022-11-15T00:31:30;100563.19;;;15.43;67.62
73220;BME280;61434;43.538;-5.688;2022-11-15T00:33:55;100556.91;;;15.34;68.21
73220;BME280;61434;43.538;-5.688;2022-11-15T00:36:23;100539.94;;;15.40;67.92
73220;BME280;61434;43.538;-5.688;2022-11-15T00:38:49;100536.75;;;15.45;67.36
73220;BME280;61434;43.538;-5.688;2022-11-15T00:41:14;100539.97;;;15.56;67.22
73220;BME280;61434;43.538;-5.688;2022-11-15T00:43:39;100535.69;;;15.37;69.02
73220;BME280;61434;43.538;-5.688;2022-11-15T00:46:05;100527.06;;;15.34;68.84
73220;BME280;61434;43.538;-5.688;2022-11-15T00:48:30;100521.56;;;15.18;69.64
73220;BME280;61434;43.538;-5.688;2022-11-15T00:50:56;100524.16;;;15.35;68.67
73220;BME280;61434;43.538;-5.688;2022-11-15T00:53:21;100514.28;;;15.10;70.07
73220;BME280;61434;43.538;-5.688;2022-11-15T00:55:47;100527.50;;;15.05;70.48
73220;BME280;61434;43.538;-5.688;2022-11-15T00:58:12;100527.84;;;15.18;69.86
73220;BME280;61434;43.538;-5.688;2022-11-15T01:00:38;100524.13;;;15.11;70.20
73220;BME280;61434;43.538;-5.688;2022-11-15T01:03:03;100528.56;;;15.20;70.29
73220;BME280;61434;43.538;-5.688;2022-11-15T01:05:28;100533.41;;;15.08;69.93
73220;BME280;61434;43.538;-5.688;2022-11-15T01:07:54;100527.66;;;15.11;69.93
73220;BME280;61434;43.538;-5.688;2022-11-15T01:10:20;100525.50;;;15.15;69.96
73220;BME280;61434;43.538;-5.688;2022-11-15T01:12:46;100529.91;;;15.16;69.67
73220;BME280;61434;43.538;-5.688;2022-11-15T01:15:11;100534.13;;;15.19;69.57
73220;BME280;61434;43.538;-5.688;2022-11-15T01:17:36;100527.53;;;15.21;69.39
73220;BME280;61434;43.538;-5.688;2022-11-15T01:20:02;100517.84;;;15.10;69.47
73220;BME280;61434;43.538;-5.688;2022-11-15T01:22:27;100519.75;;;15.26;69.32
73220;BME280;61434;43.538;-5.688;2022-11-15T01:24:53;100516.19;;;15.42;68.91
73220;BME280;61434;43.538;-5.688;2022-11-15T01:27:18;100521.44;;;15.27;69.45
73220;BME280;61434;43.538;-5.688;2022-11-15T01:29:43;100526.00;;;15.27;69.34
73220;BME280;61434;43.538;-5.688;2022-11-15T01:32:09;100523.84;;;15.38;69.16
73220;BME280;61434;43.538;-5.688;2022-11-15T01:34:34;100506.56;;;15.48;68.62
73220;BME280;61434;43.538;-5.688;2022-11-15T01:36:59;100513.28;;;15.27;69.26
73220;BME280;61434;43.538;-5.688;2022-11-15T01:39:24;100517.03;;;15.43;68.70
73220;BME280;61434;43.538;-5.688;2022-11-15T01:41:50;100515.50;;;15.32;69.11
73220;BME280;61434;43.538;-5.688;2022-11-15T01:46:56;100503.16;;;14.79;71.65
73220;BME280;61434;43.538;-5.688;2022-11-15T01:49:22;100490.44;;;14.79;71.80
73220;BME280;61434;43.538;-5.688;2022-11-15T01:51:48;100484.00;;;14.72;71.59
73220;BME280;61434;43.538;-5.688;2022-11-15T01:54:15;100481.31;;;14.88;71.68
73220;BME280;61434;43.538;-5.688;2022-11-15T01:56:43;100471.69;;;15.02;71.26
73220;BME280;61434;43.538;-5.688;2022-11-15T01:59:11;100460.50;;;14.97;71.57
73220;BME280;61434;43.538;-5.688;2022-11-15T02:01:37;100455.09;;;15.13;70.94
73220;BME280;61434;43.538;-5.688;2022-11-15T02:04:10;100442.75;;;15.19;70.73
73220;BME280;61434;43.538;-5.688;2022-11-15T02:06:37;100440.53;;;15.06;70.17
73220;BME280;61434;43.538;-5.688;2022-11-15T02:09:03;100431.53;;;15.06;70.51
73220;BME280;61434;43.538;-5.688;2022-11-15T02:11:28;100447.50;;;15.25;70.00
73220;BME280;61434;43.538;-5.688;2022-11-15T02:13:54;100432.72;;;15.28;70.28
73220;BME280;61434;43.538;-5.688;2022-11-15T02:30:11;100411.88;;;15.20;69.92
73220;BME280;61434;43.538;-5.688;2022-11-15T02:34:55;100399.53;;;15.34;69.08
73220;BME280;61434;43.538;-5.688;2022-11-15T02:40:16;100395.97;;;15.33;69.23
73220;BME280;61434;43.538;-5.688;2022-11-15T02:42:50;100385.44;;;15.30;69.33
73220;BME280;61434;43.538;-5.688;2022-11-15T02:45:50;100378.13;;;15.31;69.93
73220;BME280;61434;43.538;-5.688;2022-11-15T02:48:18;100373.72;;;15.22;70.33
73220;BME280;61434;43.538;-5.688;2022-11-15T02:50:46;100391.00;;;15.37;69.72
73220;BME280;61434;43.538;-5.688;2022-11-15T02:53:12;100397.81;;;15.41;70.07
73220;BME280;61434;43.538;-5.688;2022-11-15T02:55:42;100387.13;;;15.48;69.93
73220;BME280;61434;43.538;-5.688;2022-11-15T03:11:20;100314.56;;;15.33;71.51
73220;BME280;61434;43.538;-5.688;2022-11-15T03:18:59;100306.19;;;15.51;70.73
73220;BME280;61434;43.538;-5.688;2022-11-15T03:21:27;100309.59;;;15.45;70.28
73220;BME280;61434;43.538;-5.688;2022-11-15T03:23:53;100303.84;;;15.48;70.44
73220;BME280;61434;43.538;-5.688;2022-11-15T03:26:21;100302.81;;;15.49;70.01
73220;BME280;61434;43.538;-5.688;2022-11-15T03:31:14;100282.59;;;15.52;69.69
73220;BME280;61434;43.538;-5.688;2022-11-15T03:33:59;100266.19;;;15.37;70.92
73220;BME280;61434;43.538;-5.688;2022-11-15T03:36:27;100255.66;;;15.42;70.71
73220;BME280;61434;43.538;-5.688;2022-11-15T03:38:53;100248.34;;;15.43;71.37
73220;BME280;61434;43.538;-5.688;2022-11-15T03:41:22;100242.69;;;14.97;73.08
73220;BME280;61434;43.538;-5.688;2022-11-15T03:46:25;100233.47;;;15.30;72.46
73220;BME280;61434;43.538;-5.688;2022-11-15T03:48:53;100239.56;;;15.32;73.17
73220;BME280;61434;43.538;-5.688;2022-11-15T03:51:20;100262.09;;;15.41;72.08
73220;BME280;61434;43.538;-5.688;2022-11-15T03:53:45;100249.44;;;15.33;72.35
73220;BME280;61434;43.538;-5.688;2022-11-15T03:56:11;100258.03;;;15.37;71.87
73220;BME280;61434;43.538;-5.688;2022-11-15T03:58:36;100259.59;;;15.23;72.79
73220;BME280;61434;43.538;-5.688;2022-11-15T04:01:01;100244.34;;;15.30;72.87
73220;BME280;61434;43.538;-5.688;2022-11-15T04:03:27;100239.94;;;15.21;73.58
73220;BME280;61434;43.538;-5.688;2022-11-15T04:05:52;100239.94;;;15.13;74.70
73220;BME280;61434;43.538;-5.688;2022-11-15T04:08:17;100228.06;;;15.30;73.95
73220;BME280;61434;43.538;-5.688;2022-11-15T04:10:43;100216.56;;;15.12;74.23
73220;BME280;61434;43.538;-5.688;2022-11-15T04:13:08;100219.25;;;15.28;74.13
73220;BME280;61434;43.538;-5.688;2022-11-15T04:15:33;100212.63;;;15.31;74.01
73220;BME280;61434;43.538;-5.688;2022-11-15T04:17:59;100207.38;;;15.29;73.82
73220;BME280;61434;43.538;-5.688;2022-11-15T04:20:28;100209.56;;;15.34;74.12
73220;BME280;61434;43.538;-5.688;2022-11-15T04:23:14;100210.41;;;15.34;74.28
73220;BME280;61434;43.538;-5.688;2022-11-15T04:25:59;100210.38;;;15.43;74.49
73220;BME280;61434;43.538;-5.688;2022-11-15T04:28:25;100206.47;;;15.37;74.98
73220;BME280;61434;43.538;-5.688;2022-11-15T04:30:50;100191.78;;;15.23;74.38
73220;BME280;61434;43.538;-5.688;2022-11-15T04:33:15;100172.06;;;14.90;74.77
73220;BME280;61434;43.538;-5.688;2022-11-15T04:35:41;100142.06;;;14.75;75.84
73220;BME280;61434;43.538;-5.688;2022-11-15T04:38:08;100125.06;;;14.98;74.70
73220;BME280;61434;43.538;-5.688;2022-11-15T04:40:34;100128.13;;;14.95;73.51
73220;BME280;61434;43.538;-5.688;2022-11-15T04:42:59;100130.91;;;15.26;73.35
73220;BME280;61434;43.538;-5.688;2022-11-15T04:45:25;100123.72;;;15.41;73.09
73220;BME280;61434;43.538;-5.688;2022-11-15T04:47:50;100128.81;;;15.36;74.00
73220;BME280;61434;43.538;-5.688;2022-11-15T04:50:15;100124.22;;;15.36;73.91
73220;BME280;61434;43.538;-5.688;2022-11-15T04:52:41;100117.44;;;15.40;73.49
73220;BME280;61434;43.538;-5.688;2022-11-15T04:55:07;100122.16;;;15.47;72.67
73220;BME280;61434;43.538;-5.688;2022-11-15T04:57:33;100122.75;;;15.57;72.06
73220;BME280;61434;43.538;-5.688;2022-11-15T04:59:58;100127.84;;;15.60;71.46
73220;BME280;61434;43.538;-5.688;2022-11-15T05:02:23;100122.22;;;15.61;72.22
73220;BME280;61434;43.538;-5.688;2022-11-15T05:04:49;100123.59;;;15.65;71.86
73220;BME280;61434;43.538;-5.688;2022-11-15T05:07:14;100115.41;;;15.74;71.75
73220;BME280;61434;43.538;-5.688;2022-11-15T05:09:39;100106.44;;;15.73;71.84
73220;BME280;61434;43.538;-5.688;2022-11-15T05:12:05;100097.13;;;15.68;71.76
73220;BME280;61434;43.538;-5.688;2022-11-15T05:14:30;100092.97;;;15.49;74.29
73220;BME280;61434;43.538;-5.688;2022-11-15T05:16:55;100087.59;;;15.40;75.48
73220;BME280;61434;43.538;-5.688;2022-11-15T05:19:20;100083.84;;;15.42;74.40
73220;BME280;61434;43.538;-5.688;2022-11-15T05:21:46;100082.47;;;15.46;74.71
73220;BME280;61434;43.538;-5.688;2022-11-15T05:24:12;100100.91;;;15.58;73.97
73220;BME280;61434;43.538;-5.688;2022-11-15T05:26:37;100099.66;;;15.61;73.01
73220;BME280;61434;43.538;-5.688;2022-11-15T05:29:02;100100.91;;;15.58;72.86
73220;BME280;61434;43.538;-5.688;2022-11-15T05:31:27;100101.72;;;15.59;73.27
73220;BME280;61434;43.538;-5.688;2022-11-15T05:33:53;100096.66;;;15.64;71.86
73220;BME280;61434;43.538;-5.688;2022-11-15T05:38:50;100082.66;;;15.75;70.27
73220;BME280;61434;43.538;-5.688;2022-11-15T05:41:16;100079.88;;;15.83;69.90
73220;BME280;61434;43.538;-5.688;2022-11-15T05:43:44;100085.63;;;15.88;68.20
73220;BME280;61434;43.538;-5.688;2022-11-15T05:46:10;100082.66;;;15.75;70.32
73220;BME280;61434;43.538;-5.688;2022-11-15T05:48:36;100078.00;;;15.84;69.07
73220;BME280;61434;43.538;-5.688;2022-11-15T05:51:02;100089.84;;;15.91;68.51
73220;BME280;61434;43.538;-5.688;2022-11-15T05:53:29;100084.03;;;15.94;67.33
73220;BME280;61434;43.538;-5.688;2022-11-15T05:55:55;100086.69;;;16.02;67.04
73220;BME280;61434;43.538;-5.688;2022-11-15T05:58:20;100077.31;;;16.05;67.25
73220;BME280;61434;43.538;-5.688;2022-11-15T06:00:45;100083.25;;;16.08;68.01
73220;BME280;61434;43.538;-5.688;2022-11-15T06:03:11;100080.38;;;16.10;67.46
73220;BME280;61434;43.538;-5.688;2022-11-15T06:05:39;100092.19;;;16.17;68.58
73220;BME280;61434;43.538;-5.688;2022-11-15T06:08:04;100093.06;;;16.09;68.10
73220;BME280;61434;43.538;-5.688;2022-11-15T06:10:29;100087.09;;;16.14;68.83
73220;BME280;61434;43.538;-5.688;2022-11-15T06:15:23;100100.06;;;16.27;68.51
73220;BME280;61434;43.538;-5.688;2022-11-15T06:17:48;100089.75;;;16.22;67.12
73220;BME280;61434;43.538;-5.688;2022-11-15T06:20:13;100087.63;;;16.32;66.64
73220;BME280;61434;43.538;-5.688;2022-11-15T06:22:39;100080.16;;;16.34;66.37
73220;BME280;61434;43.538;-5.688;2022-11-15T06:25:04;100082.88;;;16.34;65.82
73220;BME280;61434;43.538;-5.688;2022-11-15T06:27:29;100084.22;;;16.15;69.21
73220;BME280;61434;43.538;-5.688;2022-11-15T06:29:55;100103.63;;;16.27;68.72
73220;BME280;61434;43.538;-5.688;2022-11-15T06:32:20;100102.25;;;16.31;66.47
73220;BME280;61434;43.538;-5.688;2022-11-15T06:34:45;100091.97;;;16.41;64.47
73220;BME280;61434;43.538;-5.688;2022-11-15T06:37:11;100089.56;;;16.24;68.48
73220;BME280;61434;43.538;-5.688;2022-11-15T06:39:36;100091.72;;;16.28;68.67
73220;BME280;61434;43.538;-5.688;2022-11-15T06:42:01;100103.53;;;16.21;69.91
73220;BME280;61434;43.538;-5.688;2022-11-15T06:44:26;100107.38;;;16.26;69.22
73220;BME280;61434;43.538;-5.688;2022-11-15T06:46:52;100139.75;;;16.36;68.28
73220;BME280;61434;43.538;-5.688;2022-11-15T06:49:17;100157.00;;;16.43;67.20
73220;BME280;61434;43.538;-5.688;2022-11-15T06:51:42;100188.53;;;16.52;65.61
73220;BME280;61434;43.538;-5.688;2022-11-15T06:54:08;100217.19;;;16.63;63.29
73220;BME280;61434;43.538;-5.688;2022-11-15T06:56:33;100229.34;;;16.67;63.92
73220;BME280;61434;43.538;-5.688;2022-11-15T06:58:58;100204.53;;;16.70;63.45
73220;BME280;61434;43.538;-5.688;2022-11-15T07:01:24;100216.25;;;16.71;64.06
73220;BME280;61434;43.538;-5.688;2022-11-15T07:03:49;100244.16;;;16.73;64.11
73220;BME280;61434;43.538;-5.688;2022-11-15T07:06:14;100241.22;;;16.74;64.99
73220;BME280;61434;43.538;-5.688;2022-11-15T07:08:40;100254.19;;;16.72;65.57
73220;BME280;61434;43.538;-5.688;2022-11-15T07:11:07;100241.09;;;16.67;66.50
73220;BME280;61434;43.538;-5.688;2022-11-15T07:13:33;100239.28;;;16.60;67.71
73220;BME280;61434;43.538;-5.688;2022-11-15T07:16:01;100266.13;;;16.63;67.34
73220;BME280;61434;43.538;-5.688;2022-11-15T07:18:26;100331.78;;;16.52;68.60
73220;BME280;61434;43.538;-5.688;2022-11-15T07:20:52;100345.53;;;16.19;71.07
73220;BME280;61434;43.538;-5.688;2022-11-15T07:23:17;100362.56;;;16.05;72.06
73220;BME280;61434;43.538;-5.688;2022-11-15T07:25:43;100379.94;;;15.96;73.57
73220;BME280;61434;43.538;-5.688;2022-11-15T07:28:08;100377.91;;;15.89;75.31
73220;BME280;61434;43.538;-5.688;2022-11-15T07:30:34;100408.47;;;15.92;76.00
73220;BME280;61434;43.538;-5.688;2022-11-15T07:32:59;100408.47;;;15.75;77.68
73220;BME280;61434;43.538;-5.688;2022-11-15T07:35:25;100410.53;;;15.73;79.69
73220;BME280;61434;43.538;-5.688;2022-11-15T07:37:55;100424.25;;;15.55;81.32
73220;BME280;61434;43.538;-5.688;2022-11-15T07:40:20;100438.03;;;15.62;81.26
73220;BME280;61434;43.538;-5.688;2022-11-15T07:42:46;100465.69;;;15.65;81.00
73220;BME280;61434;43.538;-5.688;2022-11-15T07:45:17;100460.72;;;15.61;81.19
73220;BME280;61434;43.538;-5.688;2022-11-15T07:47:46;100447.66;;;15.32;82.26
73220;BME280;61434;43.538;-5.688;2022-11-15T07:50:12;100451.59;;;15.29;82.38
73220;BME280;61434;43.538;-5.688;2022-11-15T07:52:37;100472.94;;;15.32;82.43
73220;BME280;61434;43.538;-5.688;2022-11-15T07:55:02;100490.41;;;15.30;81.84
73220;BME280;61434;43.538;-5.688;2022-11-15T07:57:29;100505.28;;;15.18;82.24
73220;BME280;61434;43.538;-5.688;2022-11-15T07:59:54;100489.38;;;15.14;82.12
73220;BME280;61434;43.538;-5.688;2022-11-15T08:02:19;100481.22;;;15.06;82.17
73220;BME280;61434;43.538;-5.688;2022-11-15T08:04:45;100491.41;;;15.21;81.87
73220;BME280;61434;43.538;-5.688;2022-11-15T08:07:10;100497.50;;;15.23;81.79
73220;BME280;61434;43.538;-5.688;2022-11-15T08:09:35;100501.44;;;15.36;81.32
73220;BME280;61434;43.538;-5.688;2022-11-15T08:12:01;100487.19;;;15.43;81.22
73220;BME280;61434;43.538;-5.688;2022-11-15T08:14:26;100485.72;;;15.64;81.24
73220;BME280;61434;43.538;-5.688;2022-11-15T08:16:51;100492.19;;;15.72;81.19
73220;BME280;61434;43.538;-5.688;2022-11-15T08:19:17;100491.13;;;15.48;79.76
73220;BME280;61434;43.538;-5.688;2022-11-15T08:21:43;100483.13;;;15.55;80.10
73220;BME280;61434;43.538;-5.688;2022-11-15T08:24:09;100483.66;;;15.75;80.91
73220;BME280;61434;43.538;-5.688;2022-11-15T08:26:34;100478.03;;;15.60;79.25
73220;BME280;61434;43.538;-5.688;2022-11-15T08:29:00;100489.13;;;15.67;80.16
73220;BME280;61434;43.538;-5.688;2022-11-15T08:31:25;100480.09;;;15.58;79.65
73220;BME280;61434;43.538;-5.688;2022-11-15T08:33:52;100487.06;;;15.52;79.48
73220;BME280;61434;43.538;-5.688;2022-11-15T08:36:18;100479.25;;;15.65;79.58
73220;BME280;61434;43.538;-5.688;2022-11-15T08:38:43;100480.78;;;15.68;79.61
73220;BME280;61434;43.538;-5.688;2022-11-15T08:41:10;100477.19;;;15.35;79.62
73220;BME280;61434;43.538;-5.688;2022-11-15T08:43:36;100467.19;;;15.44;79.94
73220;BME280;61434;43.538;-5.688;2022-11-15T08:46:01;100470.56;;;15.46;80.74
73220;BME280;61434;43.538;-5.688;2022-11-15T08:48:27;100458.88;;;15.53;80.90
73220;BME280;61434;43.538;-5.688;2022-11-15T08:50:55;100462.44;;;15.46;80.29
73220;BME280;61434;43.538;-5.688;2022-11-15T08:53:21;100461.75;;;15.44;80.14
73220;BME280;61434;43.538;-5.688;2022-11-15T08:55:46;100464.66;;;15.58;79.88
73220;BME280;61434;43.538;-5.688;2022-11-15T08:58:12;100461.28;;;15.64;81.04
73220;BME280;61434;43.538;-5.688;2022-11-15T09:00:37;100467.50;;;15.57;80.11
73220;BME280;61434;43.538;-5.688;2022-11-15T09:03:06;100457.72;;;15.64;81.08
73220;BME280;61434;43.538;-5.688;2022-11-15T09:05:31;100464.31;;;15.45;80.40
73220;BME280;61434;43.538;-5.688;2022-11-15T09:07:57;100459.53;;;15.31;81.45
73220;BME280;61434;43.538;-5.688;2022-11-15T09:10:22;100474.44;;;15.10;82.44
73220;BME280;61434;43.538;-5.688;2022-11-15T09:12:48;100487.47;;;15.07;82.78
73220;BME280;61434;43.538;-5.688;2022-11-15T09:15:13;100496.81;;;15.12;82.86
73220;BME280;61434;43.538;-5.688;2022-11-15T09:17:39;100503.94;;;15.05;83.26
73220;BME280;61434;43.538;-5.688;2022-11-15T09:20:05;100495.94;;;15.04;83.70
73220;BME280;61434;43.538;-5.688;2022-11-15T09:22:30;100513.09;;;15.12;83.47
73220;BME280;61434;43.538;-5.688;2022-11-15T09:24:55;100517.63;;;14.96;84.21
73220;BME280;61434;43.538;-5.688;2022-11-15T09:27:21;100513.38;;;14.93;84.64
73220;BME280;61434;43.538;-5.688;2022-11-15T09:29:46;100532.69;;;14.90;84.60
73220;BME280;61434;43.538;-5.688;2022-11-15T09:32:11;100538.97;;;14.91;84.37
73220;BME280;61434;43.538;-5.688;2022-11-15T09:34:37;100524.44;;;15.00;83.83
73220;BME280;61434;43.538;-5.688;2022-11-15T09:37:02;100520.88;;;15.07;82.94
73220;BME280;61434;43.538;-5.688;2022-11-15T09:39:27;100533.06;;;14.95;82.46
73220;BME280;61434;43.538;-5.688;2022-11-15T09:49:08;100536.16;;;15.17;79.89
73220;BME280;61434;43.538;-5.688;2022-11-15T09:51:43;100534.00;;;15.28;78.50
73220;BME280;61434;43.538;-5.688;2022-11-15T09:54:21;100532.47;;;15.34;77.94
73220;BME280;61434;43.538;-5.688;2022-11-15T09:56:48;100534.66;;;15.22;77.90
73220;BME280;61434;43.538;-5.688;2022-11-15T10:04:27;100532.13;;;15.37;74.51
73220;BME280;61434;43.538;-5.688;2022-11-15T10:09:43;100537.91;;;15.34;74.84
73220;BME280;61434;43.538;-5.688;2022-11-15T10:12:10;100535.88;;;15.36;74.78
73220;BME280;61434;43.538;-5.688;2022-11-15T10:14:38;100537.25;;;15.40;72.55
73220;BME280;61434;43.538;-5.688;2022-11-15T10:24:46;100529.84;;;15.67;69.58
73220;BME280;61434;43.538;-5.688;2022-11-15T10:27:16;100532.72;;;15.89;69.73
73220;BME280;61434;43.538;-5.688;2022-11-15T10:29:46;100532.06;;;15.96;69.83
73220;BME280;61434;43.538;-5.688;2022-11-15T10:32:13;100526.94;;;15.93;69.66
73220;BME280;61434;43.538;-5.688;2022-11-15T10:34:38;100531.69;;;15.99;69.45
73220;BME280;61434;43.538;-5.688;2022-11-15T10:37:04;100535.25;;;15.99;69.81
73220;BME280;61434;43.538;-5.688;2022-11-15T10:39:29;100538.81;;;16.00;69.79
73220;BME280;61434;43.538;-5.688;2022-11-15T10:41:54;100539.84;;;16.07;69.42
73220;BME280;61434;43.538;-5.688;2022-11-15T10:44:26;100532.13;;;16.43;69.15
73220;BME280;61434;43.538;-5.688;2022-11-15T10:49:28;100534.53;;;16.93;68.57
73220;BME280;61434;43.538;-5.688;2022-11-15T10:54:23;100544.81;;;17.14;67.67
73220;BME280;61434;43.538;-5.688;2022-11-15T10:56:53;100531.69;;;17.18;67.93
73220;BME280;61434;43.538;-5.688;2022-11-15T10:59:29;100521.91;;;17.32;67.37
73220;BME280;61434;43.538;-5.688;2022-11-15T11:01:55;100524.63;;;17.32;67.15
73220;BME280;61434;43.538;-5.688;2022-11-15T11:04:23;100514.50;;;17.49;66.94
73220;BME280;61434;43.538;-5.688;2022-11-15T11:11:58;100512.44;;;17.51;68.31
73220;BME280;61434;43.538;-5.688;2022-11-15T11:14:29;100500.41;;;17.45;69.00
73220;BME280;61434;43.538;-5.688;2022-11-15T11:29:44;100468.13;;;17.34;66.86
73220;BME280;61434;43.538;-5.688;2022-11-15T11:34:57;100455.97;;;17.44;65.04
73220;BME280;61434;43.538;-5.688;2022-11-15T11:37:39;100462.50;;;17.58;67.15
73220;BME280;61434;43.538;-5.688;2022-11-15T11:50:18;100443.00;;;17.69;60.79
73220;BME280;61434;43.538;-5.688;2022-11-15T11:52:51;100430.41;;;17.68;59.45
73220;BME280;61434;43.538;-5.688;2022-11-15T11:55:21;100418.47;;;17.69;59.13
73220;BME280;61434;43.538;-5.688;2022-11-15T11:57:50;100413.56;;;17.73;57.90
73220;BME280;61434;43.538;-5.688;2022-11-15T12:02:43;100428.47;;;17.77;54.12
73220;BME280;61434;43.538;-5.688;2022-11-15T12:05:13;100419.94;;;17.80;55.27
73220;BME280;61434;43.538;-5.688;2022-11-15T12:07:43;100417.31;;;17.87;55.93
73220;BME280;61434;43.538;-5.688;2022-11-15T12:15:15;100402.28;;;18.06;54.43
73220;BME280;61434;43.538;-5.688;2022-11-15T12:17:42;100402.28;;;18.06;52.08
73220;BME280;61434;43.538;-5.688;2022-11-15T12:20:15;100407.66;;;18.14;51.53
73220;BME280;61434;43.538;-5.688;2022-11-15T12:25:19;100408.34;;;18.16;50.93
73220;BME280;61434;43.538;-5.688;2022-11-15T12:36:01;100398.81;;;18.41;49.30
73220;BME280;61434;43.538;-5.688;2022-11-15T12:41:29;100401.59;;;18.48;50.17
73220;BME280;61434;43.538;-5.688;2022-11-15T12:43:55;100402.91;;;18.52;48.18
73220;BME280;61434;43.538;-5.688;2022-11-15T12:49:03;100385.97;;;18.57;50.07
73220;BME280;61434;43.538;-5.688;2022-11-15T13:02:33;100372.06;;;18.52;48.23
73220;BME280;61434;43.538;-5.688;2022-11-15T13:17:54;100370.94;;;18.61;48.36
73220;BME280;61434;43.538;-5.688;2022-11-15T13:22:51;100365.00;;;18.57;48.55
73220;BME280;61434;43.538;-5.688;2022-11-15T13:28:01;100357.28;;;18.61;47.63
73220;BME280;61434;43.538;-5.688;2022-11-15T13:30:27;100354.19;;;18.64;48.11
73220;BME280;61434;43.538;-5.688;2022-11-15T13:32:54;100348.72;;;18.64;47.75
73220;BME280;61434;43.538;-5.688;2022-11-15T13:35:26;100356.50;;;18.67;48.21
73220;BME280;61434;43.538;-5.688;2022-11-15T13:37:52;100357.09;;;18.62;48.75
73220;BME280;61434;43.538;-5.688;2022-11-15T13:42:43;100351.00;;;18.60;47.92
73220;BME280;61434;43.538;-5.688;2022-11-15T13:45:11;100344.75;;;18.66;48.34
73220;BME280;61434;43.538;-5.688;2022-11-15T13:47:37;100350.59;;;18.63;48.75
73220;BME280;61434;43.538;-5.688;2022-11-15T13:50:03;100340.97;;;18.67;48.99
73220;BME280;61434;43.538;-5.688;2022-11-15T13:52:31;100341.47;;;18.71;48.24
73220;BME280;61434;43.538;-5.688;2022-11-15T13:54:59;100345.84;;;18.87;48.02
73220;BME280;61434;43.538;-5.688;2022-11-15T13:57:45;100342.59;;;18.98;48.09
73220;BME280;61434;43.538;-5.688;2022-11-15T14:02:55;100339.09;;;19.04;47.65
73220;BME280;61434;43.538;-5.688;2022-11-15T14:05:22;100335.31;;;19.05;48.27
73220;BME280;61434;43.538;-5.688;2022-11-15T14:07:56;100332.53;;;18.99;47.25
73220;BME280;61434;43.538;-5.688;2022-11-15T14:10:26;100338.22;;;18.82;48.40
73220;BME280;61434;43.538;-5.688;2022-11-15T14:12:52;100344.94;;;18.80;49.07
73220;BME280;61434;43.538;-5.688;2022-11-15T14:15:28;100347.56;;;18.73;49.00
73220;BME280;61434;43.538;-5.688;2022-11-15T14:17:54;100338.16;;;18.76;49.01
73220;BME280;61434;43.538;-5.688;2022-11-15T14:22:55;100337.22;;;18.83;49.84
73220;BME280;61434;43.538;-5.688;2022-11-15T14:25:30;100334.69;;;19.03;49.50
73220;BME280;61434;43.538;-5.688;2022-11-15T14:28:12;100324.59;;;19.04;48.85
73220;BME280;61434;43.538;-5.688;2022-11-15T14:30:39;100332.00;;;19.10;48.14
73220;BME280;61434;43.538;-5.688;2022-11-15T14:33:18;100335.44;;;19.18;48.57
73220;BME280;61434;43.538;-5.688;2022-11-15T14:35:45;100344.59;;;19.32;47.64
73220;BME280;61434;43.538;-5.688;2022-11-15T14:38:10;100348.88;;;19.41;47.80
73220;BME280;61434;43.538;-5.688;2022-11-15T14:40:35;100355.63;;;19.73;46.85
73220;BME280;61434;43.538;-5.688;2022-11-15T14:43:01;100355.81;;;20.00;46.28
73220;BME280;61434;43.538;-5.688;2022-11-15T14:45:26;100350.38;;;19.72;47.08
73220;BME280;61434;43.538;-5.688;2022-11-15T14:47:52;100359.84;;;19.48;47.75
73220;BME280;61434;43.538;-5.688;2022-11-15T14:50:21;100363.97;;;19.37;48.24
73220;BME280;61434;43.538;-5.688;2022-11-15T14:52:47;100374.84;;;19.31;48.50
73220;BME280;61434;43.538;-5.688;2022-11-15T14:55:29;100369.72;;;19.49;48.78
73220;BME280;61434;43.538;-5.688;2022-11-15T14:57:56;100380.06;;;19.75;48.62
73220;BME280;61434;43.538;-5.688;2022-11-15T15:00:22;100390.44;;;19.37;50.90
73220;BME280;61434;43.538;-5.688;2022-11-15T15:02:51;100382.63;;;19.34;50.91
73220;BME280;61434;43.538;-5.688;2022-11-15T15:05:18;100381.13;;;19.31;51.36
73220;BME280;61434;43.538;-5.688;2022-11-15T15:07:44;100392.69;;;19.33;51.26
73220;BME280;61434;43.538;-5.688;2022-11-15T15:10:10;100393.63;;;19.40;51.19
73220;BME280;61434;43.538;-5.688;2022-11-15T15:12:35;100394.13;;;19.29;51.41
73220;BME280;61434;43.538;-5.688;2022-11-15T15:15:00;100405.00;;;19.22;51.24
73220;BME280;61434;43.538;-5.688;2022-11-15T15:17:26;100408.97;;;19.41;50.71
73220;BME280;61434;43.538;-5.688;2022-11-15T15:19:51;100416.38;;;19.26;50.67
73220;BME280;61434;43.538;-5.688;2022-11-15T15:22:17;100423.97;;;18.88;51.83
73220;BME280;61434;43.538;-5.688;2022-11-15T15:24:43;100432.53;;;18.85;53.96
73220;BME280;61434;43.538;-5.688;2022-11-15T15:27:09;100431.84;;;18.68;55.32